Time;durP1;ratioP1;P1;durP2;ratioP2;P2;SDS_P1;SDS_P2;PMS_P1;PMS_P2;Temp;Humidity;BMP_temperature;BMP_pressure;BME280_temperature;BME280_humidity;BME280_pressure;Samples;Min_cycle;Max_cycle;Signal;HPM_P1;HPM_P2
2021/09/12 00:00:19;;;;;;;20.75;11.35;;;;;;;21.31;64.07;101718.47;4952124;28;114038;-67
2021/09/12 00:02:46;;;;;;;21.02;11.25;;;;;;;21.30;64.00;101716.72;4952053;28;124166;-67
2021/09/12 00:05:16;;;;;;;18.67;10.77;;;;;;;21.29;64.25;101715.88;4952931;28;124860;-67
2021/09/12 00:07:43;;;;;;;17.27;10.85;;;;;;;21.28;64.06;101708.75;4952903;28;115053;-67
2021/09/12 00:10:11;;;;;;;20.85;11.68;;;;;;;21.27;64.16;101711.59;4970401;28;112980;-67
2021/09/12 00:12:39;;;;;;;21.55;11.20;;;;;;;21.25;64.19;101713.53;4953677;28;123798;-67
2021/09/12 00:15:08;;;;;;;22.80;11.75;;;;;;;21.22;64.24;101703.84;4938527;28;123961;-67
2021/09/12 00:17:35;;;;;;;20.08;11.68;;;;;;;21.22;64.26;101703.84;4950222;28;115130;-67
2021/09/12 00:20:04;;;;;;;19.33;11.23;;;;;;;21.21;64.19;101696.75;4947656;28;115809;-67
2021/09/12 00:22:31;;;;;;;23.02;12.00;;;;;;;21.21;64.12;101696.75;4952499;28;124345;-68
2021/09/12 00:24:58;;;;;;;23.17;11.50;;;;;;;21.19;64.07;101702.25;4952675;28;123711;-68
2021/09/12 00:27:25;;;;;;;24.95;11.90;;;;;;;21.16;64.25;101705.19;4953904;28;113242;-67
2021/09/12 00:29:52;;;;;;;18.58;10.63;;;;;;;21.14;63.95;101696.34;4950194;28;114648;-67
2021/09/12 00:32:19;;;;;;;19.15;11.25;;;;;;;21.11;64.14;101701.97;4954674;28;124866;-67
2021/09/12 00:34:46;;;;;;;20.40;10.30;;;;;;;21.08;63.99;101702.22;4944006;28;123933;-67
2021/09/12 00:37:13;;;;;;;22.25;11.32;;;;;;;21.05;63.96;101702.44;4952136;28;114699;-68
2021/09/12 00:39:40;;;;;;;18.60;10.13;;;;;;;21.02;63.90;101691.91;4952549;28;114437;-68
2021/09/12 00:42:07;;;;;;;18.38;9.65;;;;;;;21.00;63.90;101699.22;4952900;28;123892;-68
2021/09/12 00:44:35;;;;;;;17.73;10.10;;;;;;;20.96;63.86;101698.63;4953799;28;123980;-68
2021/09/12 00:47:10;;;;;;;17.75;10.18;;;;;;;20.93;63.81;101700.69;4954880;28;114318;-67
2021/09/12 00:49:39;;;;;;;18.40;10.02;;;;;;;20.90;63.79;101698.22;4951168;28;113359;-68
2021/09/12 00:52:07;;;;;;;18.42;9.45;;;;;;;20.87;63.71;101693.94;4953041;28;124175;-67
2021/09/12 00:54:36;;;;;;;19.35;9.90;;;;;;;20.85;63.71;101695.88;4951669;28;123719;-67
2021/09/12 00:57:06;;;;;;;15.27;9.07;;;;;;;20.84;63.83;101687.91;4959098;28;114010;-67
2021/09/12 00:59:37;;;;;;;17.15;9.68;;;;;;;20.80;63.65;101688.13;4947479;28;113265;-67
2021/09/12 01:02:05;;;;;;;18.98;9.07;;;;;;;20.78;63.76;101684.72;4942699;28;123813;-67
2021/09/12 01:04:34;;;;;;;15.25;8.77;;;;;;;20.77;63.69;101680.28;4949927;28;123898;-67
2021/09/12 01:07:03;;;;;;;21.20;9.65;;;;;;;20.75;63.54;101679.53;4951442;28;115031;-67
2021/09/12 01:09:30;;;;;;;16.23;9.70;;;;;;;20.73;63.60;101686.88;4940580;28;114961;-67
2021/09/12 01:11:58;;;;;;;16.70;9.32;;;;;;;20.70;63.47;101681.75;4949082;28;123137;-67
2021/09/12 01:14:29;;;;;;;16.85;9.23;;;;;;;20.66;63.44;101669.44;4947354;28;124184;-67
2021/09/12 01:16:56;;;;;;;18.00;8.85;;;;;;;20.61;63.30;101683.28;4940520;28;114673;-67
2021/09/12 01:19:24;;;;;;;17.23;8.50;;;;;;;20.57;63.20;101679.06;4952608;28;114013;-67
2021/09/12 01:21:56;;;;;;;18.40;8.65;;;;;;;20.54;63.34;101681.97;4951704;28;124133;-67
2021/09/12 01:24:30;;;;;;;15.93;8.48;;;;;;;20.49;63.31;101683.28;4953830;28;124034;-67
2021/09/12 01:26:57;;;;;;;16.23;8.68;;;;;;;20.43;63.18;101685.44;4953859;28;114530;-67
2021/09/12 01:29:25;;;;;;;12.18;7.85;;;;;;;20.39;62.98;101678.56;4951978;28;114625;-67
2021/09/12 01:31:52;;;;;;;12.93;6.93;;;;;;;20.34;62.95;101686.13;4952052;28;124353;-67
2021/09/12 01:34:19;;;;;;;14.90;7.25;;;;;;;20.31;63.09;101675.59;4950560;28;123766;-67
2021/09/12 01:36:46;;;;;;;12.70;7.03;;;;;;;20.25;62.91;101676.06;4942872;28;114111;-67
2021/09/12 01:39:13;;;;;;;13.40;6.68;;;;;;;20.22;62.78;101679.81;4947337;28;113805;-68
2021/09/12 01:41:40;;;;;;;13.73;7.68;;;;;;;20.19;62.76;101676.47;4951678;28;124865;-67
2021/09/12 01:44:08;;;;;;;13.95;7.28;;;;;;;20.14;62.65;101667.91;4951478;28;123915;-67
2021/09/12 01:46:36;;;;;;;13.80;7.43;;;;;;;20.09;62.54;101672.75;4969196;28;113044;-67
2021/09/12 01:49:06;;;;;;;12.60;6.93;;;;;;;20.03;62.68;101672.19;4952699;28;114219;-67
2021/09/12 01:51:33;;;;;;;12.25;6.55;;;;;;;19.98;62.74;101679.72;4950209;28;124299;-67
2021/09/12 01:54:00;;;;;;;13.38;6.40;;;;;;;19.96;62.54;101680.81;4950807;28;124805;-66
2021/09/12 01:56:27;;;;;;;15.75;7.10;;;;;;;19.90;62.60;101676.75;4951977;28;115180;-66
2021/09/12 01:58:55;;;;;;;12.45;6.35;;;;;;;19.86;62.51;101675.25;4950390;28;114830;-67
2021/09/12 02:01:22;;;;;;;11.73;6.57;;;;;;;19.82;62.66;101677.28;4951207;28;123733;-66
2021/09/12 02:03:49;;;;;;;11.02;6.40;;;;;;;19.78;62.71;101673.09;4952865;28;124797;-66
2021/09/12 02:06:17;;;;;;;13.38;7.03;;;;;;;19.76;62.47;101674.16;4945726;28;114879;-66
2021/09/12 02:08:44;;;;;;;12.27;6.75;;;;;;;19.72;62.49;101672.63;4946631;28;113849;-66
2021/09/12 02:11:11;;;;;;;11.98;6.63;;;;;;;19.69;62.52;101675.56;4950504;28;123893;-67
2021/09/12 02:13:39;;;;;;;14.85;6.95;;;;;;;19.65;62.54;101677.59;4943798;28;123970;-67
2021/09/12 02:16:06;;;;;;;11.55;7.18;;;;;;;19.59;62.56;101673.50;4952633;28;114906;-67
2021/09/12 02:18:33;;;;;;;12.63;7.22;;;;;;;19.55;62.65;101666.63;4952021;28;114052;-67
2021/09/12 02:21:00;;;;;;;12.25;7.38;;;;;;;19.51;62.51;101665.09;4940652;28;123842;-66
2021/09/12 02:23:29;;;;;;;12.73;7.35;;;;;;;19.48;62.57;101670.72;4940906;28;96828;-66
2021/09/12 02:25:56;;;;;;;11.60;6.45;;;;;;;19.42;62.50;101671.13;4950990;28;114005;-67
2021/09/12 02:28:23;;;;;;;13.20;7.45;;;;;;;19.40;62.34;101667.69;4951219;28;113954;-66
2021/09/12 02:30:50;;;;;;;16.30;7.18;;;;;;;19.35;62.39;101681.44;4949983;28;124084;-67
2021/09/12 02:33:17;;;;;;;14.30;6.97;;;;;;;19.32;62.59;101686.16;4949492;28;123943;-67
2021/09/12 02:35:44;;;;;;;11.90;7.45;;;;;;;19.28;62.57;101679.28;4952175;28;114844;-66
2021/09/12 02:38:12;;;;;;;12.73;7.03;;;;;;;19.22;62.65;101681.41;4937176;28;113965;-66
2021/09/12 02:40:40;;;;;;;12.35;6.70;;;;;;;19.20;62.43;101677.97;4951791;28;123902;-66
2021/09/12 02:43:08;;;;;;;11.45;6.55;;;;;;;19.15;62.41;101685.47;4950984;28;123664;-67
2021/09/12 02:45:35;;;;;;;9.90;6.20;;;;;;;19.10;62.62;101682.25;4946155;28;115829;-66
2021/09/12 02:48:03;;;;;;;13.45;6.53;;;;;;;19.06;62.67;101691.47;4930780;28;114803;-66
2021/09/12 02:50:30;;;;;;;12.30;6.78;;;;;;;19.02;62.58;101688.16;4946624;28;123732;-67
2021/09/12 02:52:57;;;;;;;12.88;6.63;;;;;;;18.97;62.52;101676.84;4942587;28;124782;-66
2021/09/12 02:55:24;;;;;;;11.95;6.65;;;;;;;18.94;62.77;101684.25;4948252;28;113620;-66
2021/09/12 02:57:51;;;;;;;14.65;7.00;;;;;;;18.89;62.52;101689.06;4968230;28;113508;-66
2021/09/12 03:00:19;;;;;;;13.57;6.75;;;;;;;18.85;62.67;101689.28;4936885;28;124560;-66
2021/09/12 03:02:46;;;;;;;12.73;6.70;;;;;;;18.81;62.53;101693.09;4936203;28;124829;-66
2021/09/12 03:05:14;;;;;;;13.68;7.00;;;;;;;18.77;62.50;101691.56;4951011;28;114549;-66
2021/09/12 03:07:41;;;;;;;15.48;7.50;;;;;;;18.74;62.54;101690.91;4949733;28;114033;-66
2021/09/12 03:10:09;;;;;;;12.60;6.63;;;;;;;18.71;62.59;101691.13;4948402;28;124221;-66
2021/09/12 03:12:36;;;;;;;11.98;6.85;;;;;;;18.67;62.52;101696.69;4948558;28;123718;-67
2021/09/12 03:15:03;;;;;;;11.88;6.40;;;;;;;18.62;62.73;101692.56;4940854;28;113211;-66
2021/09/12 03:17:30;;;;;;;13.40;6.90;;;;;;;18.57;62.70;101689.31;4950412;28;114399;-66
2021/09/12 03:19:58;;;;;;;15.40;6.70;;;;;;;18.54;62.61;101694.91;4950720;28;124118;-67
2021/09/12 03:22:25;;;;;;;13.77;6.47;;;;;;;18.51;62.69;101695.09;4953035;28;124507;-66
2021/09/12 03:24:52;;;;;;;14.60;6.60;;;;;;;18.47;62.48;101689.91;4953688;28;114259;-66
2021/09/12 03:27:19;;;;;;;12.70;6.72;;;;;;;18.45;63.05;101691.84;4956013;28;114602;-66
2021/09/12 03:29:46;;;;;;;12.40;6.85;;;;;;;18.44;62.76;101700.88;4952214;28;124143;-66
2021/09/12 03:32:13;;;;;;;9.85;6.32;;;;;;;18.42;62.83;101697.44;4952563;28;123699;-67
2021/09/12 03:34:40;;;;;;;10.63;6.40;;;;;;;18.40;63.02;101699.34;4952515;28;115284;-66
2021/09/12 03:37:07;;;;;;;12.52;6.75;;;;;;;18.37;62.64;101699.53;4967679;28;115367;-66
2021/09/12 03:39:34;;;;;;;14.93;6.20;;;;;;;18.34;62.66;101694.34;4954132;28;123956;-66
2021/09/12 03:42:02;;;;;;;11.63;6.60;;;;;;;18.30;62.71;101687.47;4952259;28;124364;-66
2021/09/12 03:44:29;;;;;;;14.73;6.65;;;;;;;18.27;62.91;101695.69;4952810;28;114580;-66
2021/09/12 03:46:56;;;;;;;14.80;6.72;;;;;;;18.26;62.64;101696.69;4970693;28;114316;-67
2021/09/12 03:49:23;;;;;;;12.38;6.50;;;;;;;18.24;62.73;101693.25;4951446;28;124409;-66
2021/09/12 03:51:50;;;;;;;11.35;6.40;;;;;;;18.23;62.65;101692.38;4963477;28;123176;-66
2021/09/12 03:54:17;;;;;;;12.52;6.15;;;;;;;18.21;62.76;101690.75;4949137;28;114356;-66
2021/09/12 03:56:44;;;;;;;11.30;6.47;;;;;;;18.20;62.63;101694.41;4962989;28;114510;-66
2021/09/12 03:59:11;;;;;;;10.77;6.20;;;;;;;18.18;62.57;101693.63;4950686;28;124422;-66
2021/09/12 04:01:39;;;;;;;11.95;6.55;;;;;;;18.15;62.68;101691.13;4953983;28;123700;-66
2021/09/12 04:04:07;;;;;;;12.27;6.72;;;;;;;18.12;62.87;101692.22;4952185;28;114272;-67
2021/09/12 04:06:34;;;;;;;10.50;6.38;;;;;;;18.11;62.83;101686.94;4953641;28;114676;-66
2021/09/12 04:09:01;;;;;;;11.57;6.32;;;;;;;18.07;62.57;101691.63;4948096;28;124057;-67
2021/09/12 04:11:28;;;;;;;14.88;6.55;;;;;;;18.05;62.76;101698.91;4945387;28;124663;-66
2021/09/12 04:13:56;;;;;;;14.50;6.70;;;;;;;18.03;62.89;101695.47;4952532;28;113406;-66
2021/09/12 04:16:23;;;;;;;13.07;6.50;;;;;;;17.99;62.84;101700.16;4941819;28;114391;-66
2021/09/12 04:18:51;;;;;;;13.02;6.97;;;;;;;17.96;62.63;101703.00;4951525;28;124116;-66
2021/09/12 04:21:18;;;;;;;11.40;6.28;;;;;;;17.91;62.71;101697.06;4944582;28;123891;-67
2021/09/12 04:23:45;;;;;;;12.77;6.80;;;;;;;17.89;62.75;101694.50;4974861;22;115352;-65
2021/09/12 04:26:12;;;;;;;10.02;6.32;;;;;;;17.89;62.83;101693.63;4982594;28;114183;-66
2021/09/12 04:28:39;;;;;;;13.15;6.70;;;;;;;17.86;62.88;101693.84;4975496;28;123516;-66
2021/09/12 04:31:06;;;;;;;11.32;6.38;;;;;;;17.85;62.91;101697.47;4950487;28;123978;-66
2021/09/12 04:33:33;;;;;;;12.88;6.43;;;;;;;17.82;62.79;101693.13;4962531;28;114325;-66
2021/09/12 04:36:00;;;;;;;15.85;6.93;;;;;;;17.80;62.75;101699.53;4953891;28;114503;-66
2021/09/12 04:38:27;;;;;;;11.27;6.55;;;;;;;17.77;62.86;101700.59;4957816;28;124087;-66
2021/09/12 04:40:55;;;;;;;13.20;6.47;;;;;;;17.75;62.87;101704.34;4959791;28;124006;-66
2021/09/12 04:43:22;;;;;;;13.95;6.55;;;;;;;17.71;62.98;101707.19;4963955;28;114985;-66
2021/09/12 04:45:49;;;;;;;9.98;6.72;;;;;;;17.69;62.91;101703.75;4962017;28;113908;-66
2021/09/12 04:48:16;;;;;;;11.65;7.10;;;;;;;17.66;63.02;101698.56;4961929;28;124696;-66
2021/09/12 04:50:43;;;;;;;10.68;6.47;;;;;;;17.64;63.09;101705.84;4949125;28;123829;-66
2021/09/12 04:53:10;;;;;;;11.23;6.22;;;;;;;17.61;62.99;101705.16;4958898;28;114668;-66
2021/09/12 04:55:37;;;;;;;12.13;6.13;;;;;;;17.58;62.83;101706.22;4978757;28;113848;-65
2021/09/12 04:58:04;;;;;;;13.32;6.97;;;;;;;17.55;62.71;101716.25;4953375;28;124124;-66
2021/09/12 05:00:32;;;;;;;12.68;6.65;;;;;;;17.52;62.91;101717.31;4958358;28;125171;-66
2021/09/12 05:02:59;;;;;;;13.02;6.55;;;;;;;17.47;63.02;101719.41;4950941;28;114116;-66
2021/09/12 05:05:26;;;;;;;15.02;6.65;;;;;;;17.45;62.99;101721.31;4960778;28;114349;-66
2021/09/12 05:07:54;;;;;;;14.60;7.07;;;;;;;17.43;63.07;101723.22;4959500;28;123224;-66
2021/09/12 05:10:22;;;;;;;13.80;6.93;;;;;;;17.41;63.11;101725.97;4959704;28;124822;-66
2021/09/12 05:12:51;;;;;;;13.35;6.78;;;;;;;17.39;63.10;101721.69;4959228;28;115298;-66
2021/09/12 05:15:19;;;;;;;14.45;6.80;;;;;;;17.37;63.38;101724.44;4954217;28;115148;-66
2021/09/12 05:17:46;;;;;;;11.82;6.75;;;;;;;17.35;63.27;101720.13;4951757;28;124696;-66
2021/09/12 05:20:14;;;;;;;13.15;6.57;;;;;;;17.33;63.37;101725.59;4951764;28;124752;-66
2021/09/12 05:22:41;;;;;;;12.50;6.30;;;;;;;17.31;63.48;101723.00;4953654;28;115052;-66
2021/09/12 05:25:09;;;;;;;12.80;6.15;;;;;;;17.32;63.47;101726.53;4963486;28;113929;-66
2021/09/12 05:27:36;;;;;;;12.93;6.75;;;;;;;17.29;63.43;101727.59;4960595;28;124023;-65
2021/09/12 05:30:04;;;;;;;12.70;6.65;;;;;;;17.29;63.51;101732.94;4954730;28;123935;-66
2021/09/12 05:32:31;;;;;;;13.15;6.03;;;;;;;17.27;63.38;101737.53;4959434;28;113502;-66
2021/09/12 05:34:58;;;;;;;12.52;6.25;;;;;;;17.26;63.48;101732.25;4956714;28;114409;-66
2021/09/12 05:37:26;;;;;;;12.10;6.50;;;;;;;17.25;63.46;101731.41;4954069;28;125084;-66
2021/09/12 05:39:53;;;;;;;11.18;6.72;;;;;;;17.25;63.47;101726.03;4954036;28;124526;-66
2021/09/12 05:42:20;;;;;;;10.05;6.25;;;;;;;17.25;63.37;101731.41;4957435;28;114426;-65
2021/09/12 05:44:48;;;;;;;11.90;6.00;;;;;;;17.25;63.48;101731.41;4953344;28;114781;-66
2021/09/12 05:47:15;;;;;;;12.63;6.38;;;;;;;17.25;63.49;101731.41;4959829;28;124792;-66
2021/09/12 05:49:42;;;;;;;12.13;6.47;;;;;;;17.24;63.44;101729.66;4950075;28;123906;-66
2021/09/12 05:52:10;;;;;;;11.40;6.40;;;;;;;17.24;63.57;101736.84;4977791;28;114583;-66
2021/09/12 05:54:37;;;;;;;11.95;6.03;;;;;;;17.22;63.54;101736.91;4960969;28;114330;-66
2021/09/12 05:57:04;;;;;;;12.48;6.55;;;;;;;17.23;63.65;101735.94;4964537;28;124380;-66
2021/09/12 05:59:31;;;;;;;14.55;6.15;;;;;;;17.24;63.51;101745.72;4949632;28;124218;-66
2021/09/12 06:01:59;;;;;;;12.30;6.68;;;;;;;17.24;63.75;101745.72;4960135;28;115136;-66
2021/09/12 06:04:26;;;;;;;14.73;6.18;;;;;;;17.26;63.70;101751.84;4960829;28;115175;-66
2021/09/12 06:06:53;;;;;;;15.25;6.38;;;;;;;17.25;63.90;101747.47;4955344;28;124086;-66
2021/09/12 06:09:22;;;;;;;10.90;6.25;;;;;;;17.25;63.83;101747.47;4962629;28;124511;-66
2021/09/12 06:11:50;;;;;;;11.15;6.10;;;;;;;17.26;64.00;101749.16;4960351;28;114139;-66
2021/09/12 06:14:18;;;;;;;13.80;6.18;;;;;;;17.30;63.85;101756.06;4952371;28;113778;-65
2021/09/12 06:16:46;;;;;;;13.20;6.25;;;;;;;17.35;64.02;101752.25;4942454;28;124627;-66
2021/09/12 06:19:14;;;;;;;11.15;6.30;;;;;;;17.39;63.88;101745.78;4947789;28;124514;-66
2021/09/12 06:21:41;;;;;;;13.88;5.97;;;;;;;17.44;64.00;101746.34;4971098;28;113134;-66
2021/09/12 06:24:08;;;;;;;10.48;5.78;;;;;;;17.50;64.11;101741.50;4951754;28;113833;-66
2021/09/12 06:26:35;;;;;;;12.85;5.90;;;;;;;17.57;64.16;101739.31;4968051;28;123850;-66
2021/09/12 06:29:02;;;;;;;11.93;6.20;;;;;;;17.66;64.29;101741.44;4981582;28;122899;-66
2021/09/12 06:31:30;;;;;;;11.45;5.82;;;;;;;17.76;64.37;101740.88;4964467;28;114194;-66
2021/09/12 06:33:57;;;;;;;8.80;5.32;;;;;;;17.88;64.58;101750.88;4957881;28;114045;-66
2021/09/12 06:36:24;;;;;;;10.35;5.20;;;;;;;17.99;64.52;101748.41;4961512;28;123859;-66
2021/09/12 06:38:51;;;;;;;10.27;5.43;;;;;;;18.12;64.35;101753.00;4961483;28;123705;-66
2021/09/12 06:41:18;;;;;;;11.23;5.20;;;;;;;18.25;64.35;101753.94;4959026;28;114344;-66
2021/09/12 06:43:45;;;;;;;9.18;5.28;;;;;;;18.34;64.33;101753.38;4961404;28;114225;-66
2021/09/12 06:46:13;;;;;;;10.93;5.55;;;;;;;18.41;63.88;101754.69;4958448;28;124467;-65
2021/09/12 06:48:40;;;;;;;9.63;4.75;;;;;;;18.47;63.70;101754.31;4961300;28;124684;-66
2021/09/12 06:51:07;;;;;;;10.52;5.25;;;;;;;18.52;63.75;101755.84;4955831;28;115293;-66
2021/09/12 06:53:34;;;;;;;10.35;5.00;;;;;;;18.56;63.61;101752.88;4963555;28;115162;-66
2021/09/12 06:56:01;;;;;;;9.48;4.82;;;;;;;18.61;63.43;101755.25;4951269;28;123434;-66
2021/09/12 06:58:28;;;;;;;9.25;4.90;;;;;;;18.66;63.07;101747.75;4958449;28;123973;-66
2021/09/12 07:00:57;;;;;;;8.88;4.68;;;;;;;18.70;63.15;101749.28;4959441;28;114740;-66
2021/09/12 07:03:25;;;;;;;8.77;4.40;;;;;;;18.76;63.11;101743.53;4951774;28;114415;-65
2021/09/12 07:05:53;;;;;;;8.13;4.97;;;;;;;18.81;63.02;101740.56;4961560;28;123509;-66
2021/09/12 07:08:20;;;;;;;9.68;4.97;;;;;;;18.89;62.96;101748.13;4963610;28;122050;-66
2021/09/12 07:10:47;;;;;;;8.95;4.60;;;;;;;18.94;63.11;101740.63;4962208;28;113552;-66
2021/09/12 07:13:14;;;;;;;9.13;4.97;;;;;;;19.05;63.39;101749.69;4952785;28;114002;-66
2021/09/12 07:15:41;;;;;;;9.02;5.20;;;;;;;19.18;63.37;101749.72;4950546;28;124298;-66
2021/09/12 07:18:09;;;;;;;9.60;4.50;;;;;;;19.32;63.26;101740.72;4949665;28;124139;-66
2021/09/12 07:20:36;;;;;;;8.93;5.07;;;;;;;19.45;63.16;101756.88;4943845;28;114451;-66
2021/09/12 07:23:03;;;;;;;7.63;4.45;;;;;;;19.55;62.75;101755.31;4954963;28;114013;-66
2021/09/12 07:25:30;;;;;;;8.27;4.45;;;;;;;19.64;62.65;101760.03;4974228;28;124075;-66
2021/09/12 07:27:58;;;;;;;7.60;4.82;;;;;;;19.73;62.33;101749.66;4961053;28;124430;-66
2021/09/12 07:30:25;;;;;;;10.02;4.72;;;;;;;19.78;62.00;101748.38;4975231;28;113993;-66
2021/09/12 07:32:52;;;;;;;9.73;5.13;;;;;;;19.82;62.00;101743.66;4960712;28;114364;-66
2021/09/12 07:35:19;;;;;;;10.73;5.05;;;;;;;19.88;61.83;101743.22;4960558;28;124174;-66
2021/09/12 07:37:46;;;;;;;9.18;5.13;;;;;;;19.93;61.74;101746.44;4950898;28;123919;-66
2021/09/12 07:40:14;;;;;;;8.90;4.72;;;;;;;19.98;61.42;101738.88;4975500;28;115759;-65
2021/09/12 07:42:42;;;;;;;8.32;5.10;;;;;;;20.01;61.53;101743.22;4957971;28;115217;-65
2021/09/12 07:45:09;;;;;;;10.60;5.43;;;;;;;20.06;61.30;101745.56;4961749;28;123871;-65
2021/09/12 07:47:36;;;;;;;8.88;4.97;;;;;;;20.13;61.53;101746.84;4954709;28;124072;-65
2021/09/12 07:50:04;;;;;;;9.40;5.20;;;;;;;20.21;61.47;101747.16;4958213;28;114281;-65
2021/09/12 07:52:31;;;;;;;11.30;5.75;;;;;;;20.29;61.42;101752.88;4951693;28;113879;-66
2021/09/12 07:54:59;;;;;;;9.18;4.80;;;;;;;20.37;61.42;101750.47;4957485;28;124739;-65
2021/09/12 07:57:26;;;;;;;7.63;4.82;;;;;;;20.47;61.29;101755.19;4961921;28;123959;-66
2021/09/12 07:59:53;;;;;;;8.93;4.80;;;;;;;20.55;61.22;101742.91;4957668;28;114080;-65
2021/09/12 08:02:20;;;;;;;8.70;4.85;;;;;;;20.67;60.98;101740.31;4961176;28;114620;-65
2021/09/12 08:04:47;;;;;;;8.70;5.10;;;;;;;20.76;61.12;101753.97;4948725;28;124447;-65
2021/09/12 08:07:15;;;;;;;6.60;4.07;;;;;;;20.84;60.93;101757.94;4955734;28;124705;-65
2021/09/12 08:09:46;;;;;;;9.50;4.80;;;;;;;20.91;60.61;101754.66;4960495;28;113058;-65
2021/09/12 08:12:13;;;;;;;8.02;4.60;;;;;;;20.97;60.66;101750.66;4965302;28;114066;-65
2021/09/12 08:14:40;;;;;;;8.85;4.70;;;;;;;21.01;60.20;101749.44;4960646;28;123736;-65
2021/09/12 08:17:07;;;;;;;12.95;4.50;;;;;;;21.02;60.07;101759.25;4945859;28;123785;-65
2021/09/12 08:19:35;;;;;;;8.05;4.10;;;;;;;21.03;59.91;101769.03;4946505;28;114325;-65
2021/09/12 08:22:02;;;;;;;10.65;4.70;;;;;;;21.04;59.87;101765.38;4983922;28;113696;-65
2021/09/12 08:24:29;;;;;;;8.35;4.63;;;;;;;21.05;59.80;101772.47;4962445;28;123321;-65
2021/09/12 08:26:57;;;;;;;8.55;4.05;;;;;;;21.07;59.70;101772.38;4962639;28;124301;-65
2021/09/12 08:29:24;;;;;;;8.07;4.25;;;;;;;21.09;59.64;101773.97;4958563;28;115454;-65
2021/09/12 08:31:51;;;;;;;8.38;4.72;;;;;;;21.13;59.77;101778.13;4962849;28;114778;-65
2021/09/12 08:34:18;;;;;;;8.40;4.50;;;;;;;21.19;59.80;101785.78;4953638;28;124371;-65
2021/09/12 08:36:45;;;;;;;9.50;4.60;;;;;;;21.29;59.82;101785.09;4960887;28;123744;-65
2021/09/12 08:39:12;;;;;;;8.20;4.32;;;;;;;21.37;59.88;101788.06;4959907;28;114059;-65
2021/09/12 08:41:39;;;;;;;9.07;4.03;;;;;;;21.47;59.73;101789.09;4962434;28;114400;-65
2021/09/12 08:44:08;;;;;;;8.20;4.05;;;;;;;21.55;59.49;101785.84;4960870;28;123123;-65
2021/09/12 08:46:35;;;;;;;10.02;4.18;;;;;;;21.62;59.54;101780.81;4957450;28;124007;-65
2021/09/12 08:49:03;;;;;;;7.47;4.15;;;;;;;21.69;59.50;101782.94;4960486;28;114633;-65
2021/09/12 08:51:30;;;;;;;9.30;4.38;;;;;;;21.74;59.20;101788.84;4959534;28;114394;-65
2021/09/12 08:53:57;;;;;;;7.05;3.92;;;;;;;21.79;58.98;101783.06;4976962;28;124647;-65
2021/09/12 08:56:24;;;;;;;8.57;4.47;;;;;;;21.80;58.73;101784.81;4959037;28;123809;-65
2021/09/12 08:58:52;;;;;;;9.45;4.50;;;;;;;21.79;58.70;101777.66;4963970;28;114384;-65
2021/09/12 09:01:30;;;;;;;9.05;4.30;;;;;;;21.79;58.63;101777.66;4959619;28;114363;-65
2021/09/12 09:04:00;;;;;;;8.52;4.47;;;;;;;21.79;58.31;101772.28;4965359;28;124666;-66
2021/09/12 09:06:37;;;;;;;7.78;4.50;;;;;;;21.77;58.40;101779.63;4952612;28;123897;-65
2021/09/12 09:09:07;;;;;;;9.18;4.22;;;;;;;21.78;58.49;101775.97;4951422;28;114561;-65
2021/09/12 09:11:37;;;;;;;8.25;4.45;;;;;;;21.82;58.58;101782.84;4953967;28;114311;-65
2021/09/12 09:14:17;;;;;;;10.55;4.35;;;;;;;21.87;58.57;101779.78;4954591;28;123868;-65
2021/09/12 09:16:47;;;;;;;8.35;4.40;;;;;;;21.95;58.63;101780.91;4954328;28;124211;-65
2021/09/12 09:19:15;;;;;;;9.10;4.65;;;;;;;22.00;58.51;101785.06;4951713;28;115015;-65
2021/09/12 09:21:44;;;;;;;7.72;4.28;;;;;;;22.03;58.24;101790.22;4952066;28;114656;-65
2021/09/12 09:24:22;;;;;;;8.25;4.43;;;;;;;22.06;58.21;101790.00;4958858;28;123863;-65
2021/09/12 09:26:51;;;;;;;9.50;3.60;;;;;;;22.09;58.22;101790.59;4963820;28;124203;-65
2021/09/12 09:29:26;;;;;;;7.55;4.50;;;;;;;22.15;58.02;101789.25;4952768;28;114117;-66
2021/09/12 09:32:25;;;;;;;;;;;;;;;22.16;58.60;101785.59;4954583;28;114272;-65
2021/09/12 09:34:59;;;;;;;11.20;4.20;;;;;;;22.21;58.15;101788.78;4933160;28;124064;-65
2021/09/12 09:37:26;;;;;;;7.85;4.18;;;;;;;22.22;57.96;101785.09;4958579;28;124207;-65
2021/09/12 09:39:56;;;;;;;8.18;4.10;;;;;;;22.23;57.76;101786.81;4956786;28;114106;-65
2021/09/12 09:42:36;;;;;;;8.98;4.22;;;;;;;22.27;57.94;101782.94;4959141;28;113714;-65
2021/09/12 09:45:13;;;;;;;8.82;3.90;;;;;;;22.37;58.25;101787.59;4961519;28;124113;-65
2021/09/12 09:47:52;;;;;;;8.80;4.38;;;;;;;22.49;58.23;101782.06;4957594;28;124009;-65
2021/09/12 09:50:20;;;;;;;8.15;4.30;;;;;;;22.64;58.29;101779.97;4961955;28;114098;-65
2021/09/12 09:52:50;;;;;;;8.30;4.25;;;;;;;22.77;57.75;101778.94;4952330;28;113672;-65
2021/09/12 09:55:21;;;;;;;9.68;3.75;;;;;;;22.90;57.80;101785.06;4956486;28;124324;-65
2021/09/12 09:57:50;;;;;;;7.63;4.07;;;;;;;23.02;57.48;101784.06;4956931;28;124390;-65
2021/09/12 10:00:19;;;;;;;8.60;4.35;;;;;;;23.12;57.08;101785.03;4960128;28;114126;-65
2021/09/12 10:02:46;;;;;;;6.93;4.38;;;;;;;;;;4954419;28;114044;-65
2021/09/12 10:05:17;;;;;;;9.45;4.60;;;;;;;23.19;56.61;101776.41;4956770;28;123790;-65
2021/09/12 10:07:44;;;;;;;8.48;4.28;;;;;;;23.21;56.44;101777.16;4946241;28;123892;-65
2021/09/12 10:10:14;;;;;;;8.68;4.32;;;;;;;23.24;56.15;101779.56;4968664;28;115008;-65
2021/09/12 10:12:55;;;;;;;9.02;4.30;;;;;;;23.21;55.63;101769.03;4961513;28;114697;-65
2021/09/12 10:15:30;;;;;;;6.95;3.88;;;;;;;23.17;55.84;101763.03;4953062;28;124428;-65
2021/09/12 10:17:59;;;;;;;9.15;3.80;;;;;;;23.17;55.71;101773.84;4950409;28;123871;-64
2021/09/12 10:20:31;;;;;;;8.07;4.10;;;;;;;23.17;55.70;101781.06;4947621;28;114750;-64
2021/09/12 10:23:01;;;;;;;9.55;4.05;;;;;;;23.17;55.89;101775.66;4955179;28;113902;-64
2021/09/12 10:25:48;;;;;;;7.20;3.70;;;;;;;23.20;55.86;101783.53;4986982;22;124086;-63
2021/09/12 10:28:29;;;;;;;8.05;4.30;;;;;;;23.19;55.63;101784.50;4969325;28;124314;-63
2021/09/12 10:30:57;;;;;;;7.78;4.90;;;;;;;23.17;55.42;101781.06;4964650;28;114551;-63
2021/09/12 10:33:26;;;;;;;7.68;4.88;;;;;;;23.12;55.44;101785.03;4965986;28;113727;-63
2021/09/12 10:36:00;;;;;;;8.63;4.97;;;;;;;23.11;55.32;101772.50;4964033;28;124157;-64
2021/09/12 10:38:36;;;;;;;8.65;5.13;;;;;;;23.12;55.38;101779.63;4969255;28;124216;-64
2021/09/12 10:41:03;;;;;;;8.20;4.70;;;;;;;23.15;55.67;101783.03;4964103;28;114163;-64
2021/09/12 10:43:30;;;;;;;9.85;5.40;;;;;;;23.17;55.53;101778.38;4971445;28;113774;-64
2021/09/12 10:46:09;;;;;;;10.68;5.78;;;;;;;23.19;55.71;101785.38;4971039;28;124017;-64
2021/09/12 10:48:43;;;;;;;10.55;5.95;;;;;;;23.19;55.28;101773.69;4971227;28;123389;-64
2021/09/12 10:51:11;;;;;;;10.38;5.50;;;;;;;23.16;55.42;101779.38;4983732;28;113470;-65
2021/09/12 10:54:00;;;;;;;10.38;5.60;;;;;;;23.13;55.53;101781.34;4970483;28;114170;-65
2021/09/12 10:56:31;;;;;;;8.25;5.18;;;;;;;23.13;55.59;101775.94;4965036;28;123046;-65
2021/09/12 10:59:13;;;;;;;10.32;5.05;;;;;;;23.18;55.46;101769.28;4966035;28;124114;-65
2021/09/12 11:01:52;;;;;;;9.98;5.00;;;;;;;23.21;55.41;101782.56;4967338;28;114916;-65
2021/09/12 11:04:29;;;;;;;8.50;4.93;;;;;;;23.25;55.24;101778.59;4985631;28;115309;-65
2021/09/12 11:07:01;;;;;;;8.07;4.78;;;;;;;23.31;55.37;101783.47;4971020;28;123039;-65
2021/09/12 11:09:29;;;;;;;8.40;5.03;;;;;;;23.36;55.22;101775.84;4970152;28;122915;-65
2021/09/12 11:11:57;;;;;;;12.05;5.43;;;;;;;23.41;55.08;101779.00;4972407;28;114145;-65
2021/09/12 11:14:25;;;;;;;11.32;5.10;;;;;;;23.45;55.01;101780.47;4970310;28;114076;-65
2021/09/12 11:16:53;;;;;;;9.10;5.60;;;;;;;23.47;55.13;101778.50;4972303;28;124227;-65